Time;durP1;ratioP1;P1;durP2;ratioP2;P2;SDS_P1;SDS_P2;PMS_P1;PMS_P2;Temp;Humidity;BMP_temperature;BMP_pressure;BME280_temperature;BME280_humidity;BME280_pressure;Samples;Min_cycle;Max_cycle;Signal;HPM_P1;HPM_P2
2021/01/20 00:05:51;;;;;;;14.1;9.7;;;;;;;0.5;85.77246;98107.47;;;;
2021/01/20 00:15:49;;;;;;;12.9;8.8;;;;;;;0.62;85.08301;98126.66;;;;
2021/01/20 00:25:47;;;;;;;11.3;7.2;;;;;;;0.62;85.21387;98128.52;;;;
2021/01/20 00:35:45;;;;;;;13.8;8.4;;;;;;;0.59;85.12012;98121.84;;;;
2021/01/20 00:45:43;;;;;;;13.2;9.6;;;;;;;0.57;85.45801;98123.96;;;;
2021/01/20 00:55:41;;;;;;;12.5;8.4;;;;;;;0.62;84.94043;98113.41;;;;
2021/01/20 01:05:39;;;;;;;11.2;7.7;;;;;;;0.5;85.27832;98112.77;;;;
2021/01/20 01:15:36;;;;;;;8.3;6;;;;;;;0.48;85.22949;98128.15;;;;
2021/01/20 01:25:34;;;;;;;11;6.3;;;;;;;0.48;85.24219;98118.34;;;;
2021/01/20 01:35:34;;;;;;;11.1;7.1;;;;;;;0.49;85.36621;98104.02;;;;
2021/01/20 01:45:30;;;;;;;10.4;6.7;;;;;;;0.56;84.76172;98105.64;;;;
2021/01/20 01:55:28;;;;;;;12.9;8.1;;;;;;;0.58;84.2168;98109.66;;;;
2021/01/20 02:05:26;;;;;;;8.4;5.8;;;;;;;0.59;83.65625;98121.07;;;;
2021/01/20 02:15:23;;;;;;;7.3;6.2;;;;;;;0.64;83.39355;98113.94;;;;
2021/01/20 02:25:21;;;;;;;7;5.3;;;;;;;0.56;83.13574;98117.05;;;;
2021/01/20 02:35:19;;;;;;;7.1;3.9;;;;;;;0.56;82.99219;98122.36;;;;
2021/01/20 02:45:17;;;;;;;7.4;4.8;;;;;;;0.59;82.85254;98118.42;;;;
2021/01/20 02:55:15;;;;;;;7.3;4.7;;;;;;;0.71;82.55762;98129.63;;;;
2021/01/20 03:05:13;;;;;;;7;4.1;;;;;;;0.77;82.92188;98117.98;;;;
2021/01/20 03:25:08;;;;;;;6.6;3.1;;;;;;;0.85;83.91699;98113.02;;;;
2021/01/20 03:35:06;;;;;;;5.2;3.2;;;;;;;0.88;84.45117;98109.05;;;;
2021/01/20 03:45:04;;;;;;;4.9;3.4;;;;;;;0.89;84.54297;98113.3;;;;
2021/01/20 03:55:02;;;;;;;5.8;3.7;;;;;;;0.9;84.93848;98114.91;;;;
2021/01/20 04:05:00;;;;;;;5.4;2.9;;;;;;;0.97;84.82227;98132.17;;;;
2021/01/20 04:14:58;;;;;;;4.1;2.9;;;;;;;1.1;84.25293;98138.09;;;;
2021/01/20 04:24:56;;;;;;;6.6;3.6;;;;;;;1.19;83.79492;98128.58;;;;
2021/01/20 04:34:53;;;;;;;6.6;2.6;;;;;;;1.27;83.42676;98133.41;;;;
2021/01/20 04:44:51;;;;;;;10.2;6.3;;;;;;;1.32;83.33594;98136.09;;;;
2021/01/20 04:54:49;;;;;;;4.4;2.9;;;;;;;1.36;83.25684;98123.88;;;;
2021/01/20 05:04:47;;;;;;;3.5;2.7;;;;;;;1.46;83.29785;98129.23;;;;
2021/01/20 05:14:47;;;;;;;5;3.1;;;;;;;1.61;82.94141;98139.91;;;;
2021/01/20 05:24:43;;;;;;;5.5;3.2;;;;;;;1.71;82.72852;98141.8;;;;
2021/01/20 05:34:41;;;;;;;7.6;3.2;;;;;;;1.79;82.82129;98146.62;;;;
2021/01/20 05:44:39;;;;;;;8.3;4.8;;;;;;;1.79;83.1084;98144.77;;;;
2021/01/20 05:54:37;;;;;;;8.7;4.6;;;;;;;1.84;83.2168;98141.33;;;;
2021/01/20 06:04:35;;;;;;;7.2;4.3;;;;;;;1.89;83.29492;98150.1;;;;
2021/01/20 06:14:33;;;;;;;9.8;4.3;;;;;;;1.98;83.11328;98148.52;;;;
2021/01/20 06:24:31;;;;;;;5.6;2.7;;;;;;;2.12;82.63184;98158.67;;;;
2021/01/20 06:34:29;;;;;;;7.6;4.4;;;;;;;2.17;82.39844;98170.09;;;;
2021/01/20 06:44:27;;;;;;;8.4;4.6;;;;;;;2.22;82.23047;98185.27;;;;
2021/01/20 06:54:25;;;;;;;11.7;8.8;;;;;;;2.38;82.12891;98186.88;;;;
2021/01/20 07:04:23;;;;;;;33.3;29.7;;;;;;;2.57;82.03418;98201.25;;;;
2021/01/20 07:14:21;;;;;;;13.6;9.4;;;;;;;2.74;81.33594;98201.78;;;;
2021/01/20 07:24:19;;;;;;;16.6;14.7;;;;;;;2.92;81.37012;98198.59;;;;
2021/01/20 07:34:17;;;;;;;16;12.4;;;;;;;3.09;80.81348;98213.5;;;;
2021/01/20 07:44:15;;;;;;;16.9;15.2;;;;;;;3.39;79.70703;98234.75;;;;
2021/01/20 07:54:13;;;;;;;19.5;14.2;;;;;;;3.41;79.67871;98254.72;;;;
2021/01/20 08:04:11;;;;;;;21;14.8;;;;;;;3.59;79.14453;98249.89;;;;
2021/01/20 08:14:10;;;;;;;22.3;15.8;;;;;;;3.94;78.23145;98268.45;;;;
2021/01/20 08:24:08;;;;;;;23.3;14.5;;;;;;;4.3;76.91895;98261.11;;;;
2021/01/20 08:34:06;;;;;;;19.8;14.3;;;;;;;4.32;75.55566;98267.75;;;;
2021/01/20 08:44:05;;;;;;;67.4;47;;;;;;;4.55;75.50781;98259.08;;;;
2021/01/20 08:54:03;;;;;;;16.2;12;;;;;;;4.4;75.45703;98250.38;;;;
2021/01/20 09:04:02;;;;;;;55.2;30.9;;;;;;;4.55;75.19629;98264.41;;;;
2021/01/20 09:14:00;;;;;;;21.6;13.8;;;;;;;4.43;75.27441;98265.83;;;;
2021/01/20 09:23:58;;;;;;;34.2;21.9;;;;;;;4.28;75.95996;98282.7;;;;
2021/01/20 09:33:56;;;;;;;11.8;7.9;;;;;;;4.47;75.86035;98294.37;;;;
2021/01/20 09:43:55;;;;;;;17.6;8.3;;;;;;;4.44;75.74121;98286.11;;;;
2021/01/20 09:53:53;;;;;;;11.5;7.9;;;;;;;4.63;74.85254;98273.71;;;;
2021/01/20 10:03:52;;;;;;;7.4;5.7;;;;;;;5;73.5332;98265.17;;;;
2021/01/20 10:13:50;;;;;;;8.9;6.7;;;;;;;5.06;72.97559;98258.73;;;;
2021/01/20 10:23:48;;;;;;;11.9;7.6;;;;;;;5.49;71.45117;98238.29;;;;
2021/01/20 10:33:47;;;;;;;12.7;8.4;;;;;;;5.73;69.41113;98214.23;;;;
2021/01/20 10:43:48;;;;;;;9.8;6.2;;;;;;;5.92;67.95605;98218.61;;;;
2021/01/20 10:53:43;;;;;;;17.4;7.9;;;;;;;5.83;67.41406;98206.13;;;;
2021/01/20 11:03:44;;;;;;;6.4;3.9;;;;;;;5.61;67.99414;98200.49;;;;
2021/01/20 11:13:40;;;;;;;10.5;6.3;;;;;;;6.06;66.80078;98195.42;;;;
2021/01/20 11:23:39;;;;;;;17.4;11.7;;;;;;;6.2;66.02637;98178.66;;;;
2021/01/20 11:33:37;;;;;;;21.9;10.4;;;;;;;6.45;65.21387;98178.3;;;;
2021/01/20 11:43:36;;;;;;;14.9;10.6;;;;;;;6.59;64.63965;98163.09;;;;
2021/01/20 11:53:34;;;;;;;29.8;18.2;;;;;;;6.73;64.34668;98158.59;;;;
2021/01/20 12:03:33;;;;;;;19.5;11.8;;;;;;;6.65;64.94043;98151.21;;;;
2021/01/20 12:13:32;;;;;;;7.9;5;;;;;;;6.98;63.84473;98135.91;;;;
2021/01/20 12:23:30;;;;;;;9;5.6;;;;;;;7.46;62.8584;98129.11;;;;
2021/01/20 12:33:29;;;;;;;10.8;6.4;;;;;;;7.87;61.79199;98118.38;;;;
2021/01/20 12:43:28;;;;;;;7.5;5.4;;;;;;;7.97;60.79297;98112.78;;;;
2021/01/20 12:53:26;;;;;;;11.5;6.3;;;;;;;7.6;61.50586;98113.05;;;;
2021/01/20 13:03:25;;;;;;;6.3;3;;;;;;;7.74;61.05371;98103.06;;;;
2021/01/20 13:13:24;;;;;;;9.6;6.8;;;;;;;7.75;60.6709;98099.3;;;;
2021/01/20 13:23:22;;;;;;;5.3;3;;;;;;;7.53;61.45117;98104.61;;;;
2021/01/20 13:33:21;;;;;;;10.4;5;;;;;;;7.37;62.0918;98100.63;;;;
2021/01/20 13:43:20;;;;;;;6.9;4.8;;;;;;;7.17;62.75977;98103.7;;;;
2021/01/20 13:53:18;;;;;;;6.1;3.5;;;;;;;6.99;62.91504;98106.16;;;;
2021/01/20 14:03:17;;;;;;;7;5.3;;;;;;;6.99;63.40918;98098.13;;;;
2021/01/20 14:13:15;;;;;;;17;7.6;;;;;;;7.04;63.19141;98100.72;;;;
2021/01/20 14:23:14;;;;;;;11.3;6.1;;;;;;;6.92;63.51074;98105.75;;;;
2021/01/20 14:33:13;;;;;;;12.9;8.4;;;;;;;6.61;64.53125;98107.36;;;;
2021/01/20 14:43:11;;;;;;;19.2;6.3;;;;;;;6.22;65.62695;98114.94;;;;
2021/01/20 14:53:10;;;;;;;16.6;9.5;;;;;;;5.73;66.73926;98129.48;;;;
2021/01/20 15:03:08;;;;;;;9.6;6.2;;;;;;;5.24;67.8584;98121.01;;;;
2021/01/20 15:13:06;;;;;;;10.5;8.1;;;;;;;4.97;69.99512;98125;;;;
2021/01/20 15:23:05;;;;;;;16.6;8.4;;;;;;;4.61;70.98145;98144.3;;;;
2021/01/20 15:33:03;;;;;;;15.7;9.1;;;;;;;4.54;72.33105;98141.95;;;;
2021/01/20 15:43:02;;;;;;;14.5;8.1;;;;;;;4.23;72.60156;98143.25;;;;
2021/01/20 15:53:00;;;;;;;11.9;6.6;;;;;;;4.49;72.35645;98148.13;;;;
2021/01/20 16:02:58;;;;;;;9.8;6.2;;;;;;;4.38;72.45996;98146.59;;;;
2021/01/20 16:12:56;;;;;;;15.4;13.6;;;;;;;3.98;74.02734;98144.2;;;;
2021/01/20 16:22:54;;;;;;;16.9;15.1;;;;;;;3.82;74.63281;98142.66;;;;
2021/01/20 16:32:53;;;;;;;13.1;8.4;;;;;;;3.79;74.90625;98148.55;;;;
2021/01/20 16:42:51;;;;;;;14.6;11;;;;;;;3.64;75.22559;98144.11;;;;
2021/01/20 16:52:49;;;;;;;16.5;10.1;;;;;;;3.5;75.86719;98141.23;;;;
2021/01/20 17:02:48;;;;;;;19.5;12.1;;;;;;;3.58;75.49219;98137.19;;;;
2021/01/20 17:12:48;;;;;;;16.7;14.9;;;;;;;3.63;74.83398;98139.84;;;;
2021/01/20 17:22:43;;;;;;;32;25.9;;;;;;;3.54;75.70703;98152.11;;;;
2021/01/20 17:32:41;;;;;;;43.5;31.1;;;;;;;3.14;76.04688;98136.27;;;;
2021/01/20 17:42:40;;;;;;;57.7;42;;;;;;;2.95;77.14551;98131.52;;;;
2021/01/20 17:52:38;;;;;;;163.8;124;;;;;;;2.63;77.21875;98120.41;;;;
2021/01/20 18:02:37;;;;;;;91.5;74.8;;;;;;;2.44;78.46875;98124.65;;;;
2021/01/20 18:12:34;;;;;;;35.1;30.2;;;;;;;2.4;79.17969;98128.9;;;;
2021/01/20 18:22:32;;;;;;;39.5;30;;;;;;;2.24;78.32129;98124.64;;;;
2021/01/20 18:32:30;;;;;;;28.4;18.8;;;;;;;2.35;79.24902;98111.1;;;;
2021/01/20 18:42:28;;;;;;;34.9;18.9;;;;;;;2.48;78.82031;98113.22;;;;
2021/01/20 18:52:26;;;;;;;44.9;35.6;;;;;;;2.46;79.20313;98114.56;;;;
2021/01/20 19:02:24;;;;;;;68.6;55.4;;;;;;;2;78.34473;98125.16;;;;
2021/01/20 19:12:22;;;;;;;58.8;38.6;;;;;;;1.55;80.73438;98111.75;;;;
2021/01/20 19:22:20;;;;;;;42.4;29.5;;;;;;;1.59;81.04102;98099.55;;;;
2021/01/20 19:32:18;;;;;;;69.8;50.9;;;;;;;1.41;80.34473;98090.2;;;;
2021/01/20 19:42:16;;;;;;;51.7;36.7;;;;;;;1.2;80.76953;98091.17;;;;
2021/01/20 19:52:13;;;;;;;85.6;55.2;;;;;;;1.04;82.05078;98094.83;;;;
2021/01/20 20:02:11;;;;;;;42;28.7;;;;;;;0.84;82.02246;98076.13;;;;
2021/01/20 20:12:09;;;;;;;36.3;21.2;;;;;;;0.63;81.98145;98072.56;;;;
2021/01/20 20:22:07;;;;;;;30.7;22.4;;;;;;;0.48;82.90918;98077.78;;;;
2021/01/20 20:32:05;;;;;;;29.4;21;;;;;;;0.3;83.30273;98070.22;;;;
2021/01/20 20:42:03;;;;;;;37.4;25.4;;;;;;;0.4;83.90625;98073.75;;;;
2021/01/20 20:52:00;;;;;;;44.7;28.5;;;;;;;0.23;83.32422;98083.69;;;;
2021/01/20 21:01:58;;;;;;;53;42.7;;;;;;;-0.06;84.6084;98072.58;;;;
2021/01/20 21:11:56;;;;;;;86.1;58.7;;;;;;;-0.15;86.43262;98065.34;;;;
2021/01/20 21:21:54;;;;;;;71.5;50.2;;;;;;;-0.21;86.59473;98047.82;;;;
2021/01/20 21:31:51;;;;;;;70.2;48.7;;;;;;;-0.4;85.31934;98042.08;;;;
2021/01/20 21:41:49;;;;;;;13.2;10.6;;;;;;;0.74;83.97363;98045.05;;;;
2021/01/20 21:51:49;;;;;;;17.1;11.2;;;;;;;1.78;80.08203;98030.78;;;;
2021/01/20 22:01:45;;;;;;;19.4;13;;;;;;;1.91;78.74805;98033.72;;;;
2021/01/20 22:11:43;;;;;;;80.9;65.1;;;;;;;1.43;79.11426;98027.01;;;;
2021/01/20 22:21:41;;;;;;;67;55.5;;;;;;;0.71;81.60059;98023.55;;;;
2021/01/20 22:31:39;;;;;;;91.7;67.4;;;;;;;0.24;82.03906;98005.8;;;;
2021/01/20 22:41:36;;;;;;;72.1;52.9;;;;;;;-0.18;83.75977;98000.45;;;;
2021/01/20 22:51:36;;;;;;;90;60.9;;;;;;;-0.39;85.05664;98003.17;;;;
2021/01/20 23:01:33;;;;;;;110.5;77.9;;;;;;;-0.66;85.24414;97987.31;;;;
2021/01/20 23:11:30;;;;;;;96.6;63.8;;;;;;;-0.88;85.57422;97971.48;;;;
2021/01/20 23:21:27;;;;;;;42.1;37.9;;;;;;;-0.84;84.8252;97979.71;;;;
2021/01/20 23:31:25;;;;;;;16.6;10.8;;;;;;;0.01;85.04883;97966.41;;;;
2021/01/20 23:41:22;;;;;;;125.4;85.3;;;;;;;-0.48;83.97656;97968.41;;;;
2021/01/20 23:51:20;;;;;;;66.5;56;;;;;;;-0.85;84.17676;97957.75;;;;
